sensor_id;sensor_type;location;lat;lon;timestamp;temperature;humidity
5846;DHT22;2949;50.778;7.094;2022-09-16T00:02:23;13.60;99.90
5846;DHT22;2949;50.778;7.094;2022-09-16T00:04:48;13.60;99.90
5846;DHT22;2949;50.778;7.094;2022-09-16T00:07:14;13.50;99.90
5846;DHT22;2949;50.778;7.094;2022-09-16T00:09:39;13.50;99.90
5846;DHT22;2949;50.778;7.094;2022-09-16T00:12:05;13.50;99.90
5846;DHT22;2949;50.778;7.094;2022-09-16T00:14:31;13.50;99.90
5846;DHT22;2949;50.778;7.094;2022-09-16T00:16:56;13.50;99.90
5846;DHT22;2949;50.778;7.094;2022-09-16T00:19:22;13.50;99.90
5846;DHT22;2949;50.778;7.094;2022-09-16T00:21:48;13.50;99.90
5846;DHT22;2949;50.778;7.094;2022-09-16T00:24:15;13.50;99.90
5846;DHT22;2949;50.778;7.094;2022-09-16T00:26:41;13.50;99.90
5846;DHT22;2949;50.778;7.094;2022-09-16T00:29:07;13.50;99.90
5846;DHT22;2949;50.778;7.094;2022-09-16T00:31:33;13.50;99.90
5846;DHT22;2949;50.778;7.094;2022-09-16T00:33:58;13.50;99.90
5846;DHT22;2949;50.778;7.094;2022-09-16T00:36:24;13.50;99.90
5846;DHT22;2949;50.778;7.094;2022-09-16T00:38:53;13.50;99.90
5846;DHT22;2949;50.778;7.094;2022-09-16T00:41:26;13.50;99.90
5846;DHT22;2949;50.778;7.094;2022-09-16T00:44:00;13.40;99.90
5846;DHT22;2949;50.778;7.094;2022-09-16T00:49:01;13.20;99.90
5846;DHT22;2949;50.778;7.094;2022-09-16T00:51:27;13.10;99.90
5846;DHT22;2949;50.778;7.094;2022-09-16T00:53:57;13.00;99.90
5846;DHT22;2949;50.778;7.094;2022-09-16T00:56:27;13.00;99.90
5846;DHT22;2949;50.778;7.094;2022-09-16T00:59:05;13.00;99.90
5846;DHT22;2949;50.778;7.094;2022-09-16T01:01:32;12.90;99.90
5846;DHT22;2949;50.778;7.094;2022-09-16T01:06:27;12.90;99.90
5846;DHT22;2949;50.778;7.094;2022-09-16T01:08:55;12.90;99.90
5846;DHT22;2949;50.778;7.094;2022-09-16T01:11:20;12.80;99.90
5846;DHT22;2949;50.778;7.094;2022-09-16T01:13:46;12.80;99.90
5846;DHT22;2949;50.778;7.094;2022-09-16T01:16:31;12.80;99.90
5846;DHT22;2949;50.778;7.094;2022-09-16T01:21:58;12.70;99.90
5846;DHT22;2949;50.778;7.094;2022-09-16T01:27:17;12.60;99.90
5846;DHT22;2949;50.778;7.094;2022-09-16T01:33:03;12.60;99.90
5846;DHT22;2949;50.778;7.094;2022-09-16T01:38:38;12.70;99.90
5846;DHT22;2949;50.778;7.094;2022-09-16T01:41:12;12.80;99.90
5846;DHT22;2949;50.778;7.094;2022-09-16T01:43:56;12.80;99.90
5846;DHT22;2949;50.778;7.094;2022-09-16T01:46:41;12.90;99.90
5846;DHT22;2949;50.778;7.094;2022-09-16T01:49:42;12.90;99.90
5846;DHT22;2949;50.778;7.094;2022-09-16T01:55:14;12.80;99.90
5846;DHT22;2949;50.778;7.094;2022-09-16T01:57:52;12.80;99.90
5846;DHT22;2949;50.778;7.094;2022-09-16T02:00:20;12.80;99.90
5846;DHT22;2949;50.778;7.094;2022-09-16T02:03:06;12.80;99.90
5846;DHT22;2949;50.778;7.094;2022-09-16T02:06:08;12.80;99.90
5846;DHT22;2949;50.778;7.094;2022-09-16T02:08:36;12.70;99.90
5846;DHT22;2949;50.778;7.094;2022-09-16T02:11:07;12.70;99.90
5846;DHT22;2949;50.778;7.094;2022-09-16T02:13:38;12.70;99.90
5846;DHT22;2949;50.778;7.094;2022-09-16T02:16:09;12.70;99.90
5846;DHT22;2949;50.778;7.094;2022-09-16T02:18:40;12.70;99.90
5846;DHT22;2949;50.778;7.094;2022-09-16T02:21:08;12.60;99.90
5846;DHT22;2949;50.778;7.094;2022-09-16T02:23:42;12.60;99.90
5846;DHT22;2949;50.778;7.094;2022-09-16T02:26:10;12.60;99.90
5846;DHT22;2949;50.778;7.094;2022-09-16T02:28:41;12.60;99.90
5846;DHT22;2949;50.778;7.094;2022-09-16T02:31:09;12.60;99.90
5846;DHT22;2949;50.778;7.094;2022-09-16T02:34:00;12.60;99.90
5846;DHT22;2949;50.778;7.094;2022-09-16T02:36:25;12.60;99.90
5846;DHT22;2949;50.778;7.094;2022-09-16T02:39:05;12.60;99.90
5846;DHT22;2949;50.778;7.094;2022-09-16T02:41:33;12.50;99.90
5846;DHT22;2949;50.778;7.094;2022-09-16T02:43:59;12.50;99.90
5846;DHT22;2949;50.778;7.094;2022-09-16T02:49:12;12.50;99.90
5846;DHT22;2949;50.778;7.094;2022-09-16T02:54:20;12.60;99.90
5846;DHT22;2949;50.778;7.094;2022-09-16T02:56:48;12.70;99.90
5846;DHT22;2949;50.778;7.094;2022-09-16T02:59:14;12.70;99.90
5846;DHT22;2949;50.778;7.094;2022-09-16T03:01:43;12.70;99.90
5846;DHT22;2949;50.778;7.094;2022-09-16T03:04:10;12.80;99.90
5846;DHT22;2949;50.778;7.094;2022-09-16T03:06:37;12.80;99.90
5846;DHT22;2949;50.778;7.094;2022-09-16T03:09:06;12.70;99.90
5846;DHT22;2949;50.778;7.094;2022-09-16T03:20:53;12.70;99.90
5846;DHT22;2949;50.778;7.094;2022-09-16T03:26:34;12.60;99.90
5846;DHT22;2949;50.778;7.094;2022-09-16T03:29:13;12.60;99.90
5846;DHT22;2949;50.778;7.094;2022-09-16T03:34:30;12.50;99.90
5846;DHT22;2949;50.778;7.094;2022-09-16T03:37:02;12.60;99.90
5846;DHT22;2949;50.778;7.094;2022-09-16T03:39:30;12.60;99.90
5846;DHT22;2949;50.778;7.094;2022-09-16T03:42:03;12.70;99.90
5846;DHT22;2949;50.778;7.094;2022-09-16T03:44:34;12.70;99.90
5846;DHT22;2949;50.778;7.094;2022-09-16T03:47:05;12.80;99.90
5846;DHT22;2949;50.778;7.094;2022-09-16T03:49:30;12.80;99.90
5846;DHT22;2949;50.778;7.094;2022-09-16T03:51:56;12.80;99.90
5846;DHT22;2949;50.778;7.094;2022-09-16T03:54:22;12.80;99.90
5846;DHT22;2949;50.778;7.094;2022-09-16T03:56:48;12.70;99.90
5846;DHT22;2949;50.778;7.094;2022-09-16T03:59:14;12.70;99.90
5846;DHT22;2949;50.778;7.094;2022-09-16T04:01:39;12.80;99.90
5846;DHT22;2949;50.778;7.094;2022-09-16T04:04:05;12.80;99.90
5846;DHT22;2949;50.778;7.094;2022-09-16T04:06:31;12.80;99.90
5846;DHT22;2949;50.778;7.094;2022-09-16T04:08:56;12.80;99.90
5846;DHT22;2949;50.778;7.094;2022-09-16T04:11:23;12.80;99.90
5846;DHT22;2949;50.778;7.094;2022-09-16T04:13:49;12.80;99.90
5846;DHT22;2949;50.778;7.094;2022-09-16T04:16:19;12.80;99.90
5846;DHT22;2949;50.778;7.094;2022-09-16T04:21:11;12.80;99.90
5846;DHT22;2949;50.778;7.094;2022-09-16T04:23:37;12.70;99.90
5846;DHT22;2949;50.778;7.094;2022-09-16T04:26:03;12.70;99.90
5846;DHT22;2949;50.778;7.094;2022-09-16T04:28:30;12.70;99.90
5846;DHT22;2949;50.778;7.094;2022-09-16T04:31:04;12.60;99.90
5846;DHT22;2949;50.778;7.094;2022-09-16T04:33:32;12.50;99.90
5846;DHT22;2949;50.778;7.094;2022-09-16T04:38:30;12.50;99.90
5846;DHT22;2949;50.778;7.094;2022-09-16T04:41:26;12.50;99.90
5846;DHT22;2949;50.778;7.094;2022-09-16T04:43:54;12.50;99.90
5846;DHT22;2949;50.778;7.094;2022-09-16T04:46:21;12.50;99.90
5846;DHT22;2949;50.778;7.094;2022-09-16T04:48:50;12.40;99.90
5846;DHT22;2949;50.778;7.094;2022-09-16T04:51:17;12.40;99.90
5846;DHT22;2949;50.778;7.094;2022-09-16T04:53:44;12.40;99.90
5846;DHT22;2949;50.778;7.094;2022-09-16T04:56:14;12.40;99.90
5846;DHT22;2949;50.778;7.094;2022-09-16T04:58:48;12.30;99.90
5846;DHT22;2949;50.778;7.094;2022-09-16T05:01:16;12.30;99.90
5846;DHT22;2949;50.778;7.094;2022-09-16T05:03:43;12.20;99.90
5846;DHT22;2949;50.778;7.094;2022-09-16T05:06:12;12.10;99.90
5846;DHT22;2949;50.778;7.094;2022-09-16T05:08:38;12.00;99.90
5846;DHT22;2949;50.778;7.094;2022-09-16T05:11:06;11.90;99.90
5846;DHT22;2949;50.778;7.094;2022-09-16T05:13:32;11.90;99.90
5846;DHT22;2949;50.778;7.094;2022-09-16T05:16:02;11.80;99.90
5846;DHT22;2949;50.778;7.094;2022-09-16T05:18:28;11.80;99.90
5846;DHT22;2949;50.778;7.094;2022-09-16T05:20:59;11.70;99.90
5846;DHT22;2949;50.778;7.094;2022-09-16T05:23:25;11.80;99.90
5846;DHT22;2949;50.778;7.094;2022-09-16T05:25:51;11.80;99.90
5846;DHT22;2949;50.778;7.094;2022-09-16T05:28:16;11.80;99.90
5846;DHT22;2949;50.778;7.094;2022-09-16T05:30:43;11.90;99.90
5846;DHT22;2949;50.778;7.094;2022-09-16T05:33:08;11.90;99.90
5846;DHT22;2949;50.778;7.094;2022-09-16T05:35:34;11.90;99.90
5846;DHT22;2949;50.778;7.094;2022-09-16T05:37:59;12.00;99.90
5846;DHT22;2949;50.778;7.094;2022-09-16T05:40:25;12.10;99.90
5846;DHT22;2949;50.778;7.094;2022-09-16T05:42:52;12.20;99.90
5846;DHT22;2949;50.778;7.094;2022-09-16T05:45:17;12.40;99.90
5846;DHT22;2949;50.778;7.094;2022-09-16T05:47:47;12.50;99.90
5846;DHT22;2949;50.778;7.094;2022-09-16T05:50:13;12.70;99.90
5846;DHT22;2949;50.778;7.094;2022-09-16T05:52:38;12.70;99.90
5846;DHT22;2949;50.778;7.094;2022-09-16T05:55:04;12.70;99.90
5846;DHT22;2949;50.778;7.094;2022-09-16T05:57:30;12.80;99.90
5846;DHT22;2949;50.778;7.094;2022-09-16T05:59:55;12.80;99.90
5846;DHT22;2949;50.778;7.094;2022-09-16T06:02:21;12.80;99.90
5846;DHT22;2949;50.778;7.094;2022-09-16T06:04:46;12.80;99.90
5846;DHT22;2949;50.778;7.094;2022-09-16T06:07:12;12.80;99.90
5846;DHT22;2949;50.778;7.094;2022-09-16T06:09:37;12.80;99.90
5846;DHT22;2949;50.778;7.094;2022-09-16T06:12:03;12.90;99.90
5846;DHT22;2949;50.778;7.094;2022-09-16T06:14:29;12.90;99.90
5846;DHT22;2949;50.778;7.094;2022-09-16T06:16:54;13.00;99.90
5846;DHT22;2949;50.778;7.094;2022-09-16T06:19:20;13.00;99.90
5846;DHT22;2949;50.778;7.094;2022-09-16T06:21:46;13.10;99.90
5846;DHT22;2949;50.778;7.094;2022-09-16T06:24:12;13.10;99.90
5846;DHT22;2949;50.778;7.094;2022-09-16T06:26:40;13.30;99.90
5846;DHT22;2949;50.778;7.094;2022-09-16T06:29:07;13.30;99.90
5846;DHT22;2949;50.778;7.094;2022-09-16T06:31:33;13.40;99.90
5846;DHT22;2949;50.778;7.094;2022-09-16T06:34:00;13.50;99.90
5846;DHT22;2949;50.778;7.094;2022-09-16T06:36:37;13.60;99.90
5846;DHT22;2949;50.778;7.094;2022-09-16T06:39:03;13.80;99.90
5846;DHT22;2949;50.778;7.094;2022-09-16T06:41:31;13.90;99.90
5846;DHT22;2949;50.778;7.094;2022-09-16T06:43:58;13.90;99.90
5846;DHT22;2949;50.778;7.094;2022-09-16T06:46:25;14.00;99.90
5846;DHT22;2949;50.778;7.094;2022-09-16T06:48:54;14.20;99.90
5846;DHT22;2949;50.778;7.094;2022-09-16T06:51:28;14.80;99.90
5846;DHT22;2949;50.778;7.094;2022-09-16T06:53:58;15.40;99.90
5846;DHT22;2949;50.778;7.094;2022-09-16T06:56:24;16.00;99.90
5846;DHT22;2949;50.778;7.094;2022-09-16T06:58:51;16.10;99.90
5846;DHT22;2949;50.778;7.094;2022-09-16T07:01:20;16.10;99.90
5846;DHT22;2949;50.778;7.094;2022-09-16T07:03:48;16.00;99.90
5846;DHT22;2949;50.778;7.094;2022-09-16T07:06:15;15.80;99.90
5846;DHT22;2949;50.778;7.094;2022-09-16T07:08:41;15.50;99.90
5846;DHT22;2949;50.778;7.094;2022-09-16T07:11:10;15.40;99.90
5846;DHT22;2949;50.778;7.094;2022-09-16T07:13:36;15.20;99.90
5846;DHT22;2949;50.778;7.094;2022-09-16T07:16:05;15.00;99.90
5846;DHT22;2949;50.778;7.094;2022-09-16T07:18:32;14.80;99.90
5846;DHT22;2949;50.778;7.094;2022-09-16T07:21:05;14.60;99.90
5846;DHT22;2949;50.778;7.094;2022-09-16T07:23:33;14.50;99.90
5846;DHT22;2949;50.778;7.094;2022-09-16T07:26:08;14.60;99.90
5846;DHT22;2949;50.778;7.094;2022-09-16T07:28:34;14.70;99.90
5846;DHT22;2949;50.778;7.094;2022-09-16T07:31:06;15.10;99.90
5846;DHT22;2949;50.778;7.094;2022-09-16T07:33:36;15.40;99.90
5846;DHT22;2949;50.778;7.094;2022-09-16T07:36:03;15.80;99.90
5846;DHT22;2949;50.778;7.094;2022-09-16T07:38:30;16.10;99.90
5846;DHT22;2949;50.778;7.094;2022-09-16T07:41:02;16.20;99.90
5846;DHT22;2949;50.778;7.094;2022-09-16T07:43:28;16.10;99.90
5846;DHT22;2949;50.778;7.094;2022-09-16T07:45:57;16.20;99.90
5846;DHT22;2949;50.778;7.094;2022-09-16T07:48:22;16.90;99.90
5846;DHT22;2949;50.778;7.094;2022-09-16T07:50:59;17.50;99.90
5846;DHT22;2949;50.778;7.094;2022-09-16T07:53:26;18.00;99.90
5846;DHT22;2949;50.778;7.094;2022-09-16T07:56:00;18.50;99.90
5846;DHT22;2949;50.778;7.094;2022-09-16T07:58:25;18.70;99.90
5846;DHT22;2949;50.778;7.094;2022-09-16T08:00:51;18.70;99.90
5846;DHT22;2949;50.778;7.094;2022-09-16T08:03:16;18.60;99.90
5846;DHT22;2949;50.778;7.094;2022-09-16T08:05:42;18.50;99.90
5846;DHT22;2949;50.778;7.094;2022-09-16T08:08:08;18.50;99.90
5846;DHT22;2949;50.778;7.094;2022-09-16T08:10:34;18.40;99.90
5846;DHT22;2949;50.778;7.094;2022-09-16T08:13:04;19.00;99.90
5846;DHT22;2949;50.778;7.094;2022-09-16T08:15:30;20.40;99.90
5846;DHT22;2949;50.778;7.094;2022-09-16T08:17:56;23.50;99.90
5846;DHT22;2949;50.778;7.094;2022-09-16T08:20:22;24.20;98.80
5846;DHT22;2949;50.778;7.094;2022-09-16T08:22:48;24.30;97.90
5846;DHT22;2949;50.778;7.094;2022-09-16T08:25:14;24.20;96.30
5846;DHT22;2949;50.778;7.094;2022-09-16T08:27:40;23.40;97.50
5846;DHT22;2949;50.778;7.094;2022-09-16T08:30:05;22.70;98.40
5846;DHT22;2949;50.778;7.094;2022-09-16T08:32:31;22.40;99.40
5846;DHT22;2949;50.778;7.094;2022-09-16T08:34:57;22.40;99.90
5846;DHT22;2949;50.778;7.094;2022-09-16T08:37:22;21.60;99.80
5846;DHT22;2949;50.778;7.094;2022-09-16T08:39:48;20.60;99.90
5846;DHT22;2949;50.778;7.094;2022-09-16T08:50:03;16.40;99.90
5846;DHT22;2949;50.778;7.094;2022-09-16T08:52:35;16.10;99.90
5846;DHT22;2949;50.778;7.094;2022-09-16T08:55:02;16.10;99.90
5846;DHT22;2949;50.778;7.094;2022-09-16T08:57:33;16.30;99.90
5846;DHT22;2949;50.778;7.094;2022-09-16T09:00:19;16.50;99.90
5846;DHT22;2949;50.778;7.094;2022-09-16T09:02:53;16.90;99.90
5846;DHT22;2949;50.778;7.094;2022-09-16T09:06:10;17.20;99.90
5846;DHT22;2949;50.778;7.094;2022-09-16T09:08:27;17.60;99.90
5846;DHT22;2949;50.778;7.094;2022-09-16T09:17:09;19.90;99.90
5846;DHT22;2949;50.778;7.094;2022-09-16T09:19:47;20.80;99.90
5846;DHT22;2949;50.778;7.094;2022-09-16T09:25:27;21.70;99.90
5846;DHT22;2949;50.778;7.094;2022-09-16T09:30:24;21.40;99.90
5846;DHT22;2949;50.778;7.094;2022-09-16T09:38:38;21.60;99.30
5846;DHT22;2949;50.778;7.094;2022-09-16T09:41:11;21.40;98.90
5846;DHT22;2949;50.778;7.094;2022-09-16T09:43:54;20.90;99.90
5846;DHT22;2949;50.778;7.094;2022-09-16T09:46:31;21.20;99.90
5846;DHT22;2949;50.778;7.094;2022-09-16T09:51:50;24.00;93.70
5846;DHT22;2949;50.778;7.094;2022-09-16T09:54:28;25.10;89.90
5846;DHT22;2949;50.778;7.094;2022-09-16T09:56:58;26.00;83.00
5846;DHT22;2949;50.778;7.094;2022-09-16T10:01:55;26.90;76.80
5846;DHT22;2949;50.778;7.094;2022-09-16T10:04:22;27.30;74.40
5846;DHT22;2949;50.778;7.094;2022-09-16T10:06:49;26.50;73.90
5846;DHT22;2949;50.778;7.094;2022-09-16T10:09:16;25.60;72.20
5846;DHT22;2949;50.778;7.094;2022-09-16T10:11:48;24.50;75.60
5846;DHT22;2949;50.778;7.094;2022-09-16T10:14:35;23.60;82.30
5846;DHT22;2949;50.778;7.094;2022-09-16T10:17:13;23.20;84.60
5846;DHT22;2949;50.778;7.094;2022-09-16T10:19:54;22.30;86.60
5846;DHT22;2949;50.778;7.094;2022-09-16T10:22:29;20.80;90.50
5846;DHT22;2949;50.778;7.094;2022-09-16T10:25:00;19.60;94.20
5846;DHT22;2949;50.778;7.094;2022-09-16T10:27:35;19.00;98.00
5846;DHT22;2949;50.778;7.094;2022-09-16T10:30:19;18.50;99.90
5846;DHT22;2949;50.778;7.094;2022-09-16T10:32:55;18.40;99.90
5846;DHT22;2949;50.778;7.094;2022-09-16T10:35:34;19.00;99.90
5846;DHT22;2949;50.778;7.094;2022-09-16T10:40:38;22.30;92.50
5846;DHT22;2949;50.778;7.094;2022-09-16T10:43:11;22.90;90.20
5846;DHT22;2949;50.778;7.094;2022-09-16T10:45:44;24.10;86.00
5846;DHT22;2949;50.778;7.094;2022-09-16T10:48:16;24.20;83.80
5846;DHT22;2949;50.778;7.094;2022-09-16T10:51:04;24.10;83.80
5846;DHT22;2949;50.778;7.094;2022-09-16T10:56:04;24.30;81.30
5846;DHT22;2949;50.778;7.094;2022-09-16T10:58:30;25.00;79.10
5846;DHT22;2949;50.778;7.094;2022-09-16T11:01:36;24.50;80.00
5846;DHT22;2949;50.778;7.094;2022-09-16T11:07:04;22.10;85.90
5846;DHT22;2949;50.778;7.094;2022-09-16T11:09:50;21.50;89.20
5846;DHT22;2949;50.778;7.094;2022-09-16T11:20:30;19.90;91.90
5846;DHT22;2949;50.778;7.094;2022-09-16T11:23:16;19.90;92.40
5846;DHT22;2949;50.778;7.094;2022-09-16T11:25:48;19.90;93.10
5846;DHT22;2949;50.778;7.094;2022-09-16T11:28:33;20.00;93.50
5846;DHT22;2949;50.778;7.094;2022-09-16T11:31:21;20.10;93.90
5846;DHT22;2949;50.778;7.094;2022-09-16T11:34:20;20.10;92.00
5846;DHT22;2949;50.778;7.094;2022-09-16T11:39:43;19.40;93.90
5846;DHT22;2949;50.778;7.094;2022-09-16T11:42:34;19.40;94.90
5846;DHT22;2949;50.778;7.094;2022-09-16T11:45:18;19.10;95.50
5846;DHT22;2949;50.778;7.094;2022-09-16T11:56:19;18.80;96.90
5846;DHT22;2949;50.778;7.094;2022-09-16T11:58:55;18.80;97.30
5846;DHT22;2949;50.778;7.094;2022-09-16T12:01:30;18.80;95.20
5846;DHT22;2949;50.778;7.094;2022-09-16T12:04:19;18.50;96.00
5846;DHT22;2949;50.778;7.094;2022-09-16T12:07:09;18.40;96.90
5846;DHT22;2949;50.778;7.094;2022-09-16T12:09:41;18.30;94.40
5846;DHT22;2949;50.778;7.094;2022-09-16T12:12:15;18.40;94.70
5846;DHT22;2949;50.778;7.094;2022-09-16T12:14:47;18.50;95.60
5846;DHT22;2949;50.778;7.094;2022-09-16T12:17:19;18.80;94.30
5846;DHT22;2949;50.778;7.094;2022-09-16T12:22:51;18.60;95.40
5846;DHT22;2949;50.778;7.094;2022-09-16T12:25:28;18.50;95.30
5846;DHT22;2949;50.778;7.094;2022-09-16T12:28:38;18.60;94.90
5846;DHT22;2949;50.778;7.094;2022-09-16T12:31:22;18.40;99.50
5846;DHT22;2949;50.778;7.094;2022-09-16T12:34:03;17.90;99.90
5846;DHT22;2949;50.778;7.094;2022-09-16T12:36:35;17.50;99.90
5846;DHT22;2949;50.778;7.094;2022-09-16T12:39:02;17.10;99.90
5846;DHT22;2949;50.778;7.094;2022-09-16T12:44:38;16.40;99.90
5846;DHT22;2949;50.778;7.094;2022-09-16T12:56:07;15.90;99.90
5846;DHT22;2949;50.778;7.094;2022-09-16T13:01:30;16.00;99.90
5846;DHT22;2949;50.778;7.094;2022-09-16T13:06:45;15.80;99.90
5846;DHT22;2949;50.778;7.094;2022-09-16T13:09:57;15.80;99.90
5846;DHT22;2949;50.778;7.094;2022-09-16T13:12:25;15.60;99.90
5846;DHT22;2949;50.778;7.094;2022-09-16T13:14:57;15.50;99.90
5846;DHT22;2949;50.778;7.094;2022-09-16T13:17:34;15.50;99.90
5846;DHT22;2949;50.778;7.094;2022-09-16T13:20:05;15.30;99.90
5846;DHT22;2949;50.778;7.094;2022-09-16T13:27:57;14.30;99.90
5846;DHT22;2949;50.778;7.094;2022-09-16T13:30:34;14.10;99.90
5846;DHT22;2949;50.778;7.094;2022-09-16T13:33:18;14.00;99.90
5846;DHT22;2949;50.778;7.094;2022-09-16T13:35:47;14.00;99.90
5846;DHT22;2949;50.778;7.094;2022-09-16T13:40:55;14.10;99.90
5846;DHT22;2949;50.778;7.094;2022-09-16T13:43:32;14.00;99.90
5846;DHT22;2949;50.778;7.094;2022-09-16T13:46:26;14.00;99.90
5846;DHT22;2949;50.778;7.094;2022-09-16T13:51:32;13.80;99.90
5846;DHT22;2949;50.778;7.094;2022-09-16T13:53:58;13.80;99.90
5846;DHT22;2949;50.778;7.094;2022-09-16T13:56:39;13.60;99.90
5846;DHT22;2949;50.778;7.094;2022-09-16T13:59:19;13.40;99.90
5846;DHT22;2949;50.778;7.094;2022-09-16T14:13:21;13.80;99.90
5846;DHT22;2949;50.778;7.094;2022-09-16T14:18:16;14.40;99.90
5846;DHT22;2949;50.778;7.094;2022-09-16T14:21:16;14.40;99.90
5846;DHT22;2949;50.778;7.094;2022-09-16T14:23:42;14.40;99.90
5846;DHT22;2949;50.778;7.094;2022-09-16T14:26:19;14.40;99.90
5846;DHT22;2949;50.778;7.094;2022-09-16T14:28:45;14.50;99.90
5846;DHT22;2949;50.778;7.094;2022-09-16T14:31:20;14.50;99.90
5846;DHT22;2949;50.778;7.094;2022-09-16T14:33:51;14.40;99.90
5846;DHT22;2949;50.778;7.094;2022-09-16T14:36:24;14.40;99.90
5846;DHT22;2949;50.778;7.094;2022-09-16T14:39:00;14.40;99.90
5846;DHT22;2949;50.778;7.094;2022-09-16T14:41:44;14.70;99.90
5846;DHT22;2949;50.778;7.094;2022-09-16T14:46:47;14.90;99.90
5846;DHT22;2949;50.778;7.094;2022-09-16T14:49:14;15.00;99.90
5846;DHT22;2949;50.778;7.094;2022-09-16T14:51:47;14.90;99.90
5846;DHT22;2949;50.778;7.094;2022-09-16T14:54:19;14.90;99.90
5846;DHT22;2949;50.778;7.094;2022-09-16T14:56:59;14.90;99.90
5846;DHT22;2949;50.778;7.094;2022-09-16T14:59:34;14.90;99.90
5846;DHT22;2949;50.778;7.094;2022-09-16T15:02:25;14.90;99.90
5846;DHT22;2949;50.778;7.094;2022-09-16T15:04:56;14.90;99.90
5846;DHT22;2949;50.778;7.094;2022-09-16T15:07:25;14.90;99.90
5846;DHT22;2949;50.778;7.094;2022-09-16T15:12:31;14.90;99.90
5846;DHT22;2949;50.778;7.094;2022-09-16T15:15:09;14.80;99.90
5846;DHT22;2949;50.778;7.094;2022-09-16T15:17:39;14.70;99.90
5846;DHT22;2949;50.778;7.094;2022-09-16T15:20:05;14.60;99.90
5846;DHT22;2949;50.778;7.094;2022-09-16T15:22:31;14.50;99.90
5846;DHT22;2949;50.778;7.094;2022-09-16T15:24:57;14.40;99.90
5846;DHT22;2949;50.778;7.094;2022-09-16T15:27:28;14.30;99.90
5846;DHT22;2949;50.778;7.094;2022-09-16T15:29:59;14.30;99.90
5846;DHT22;2949;50.778;7.094;2022-09-16T15:32:27;14.40;99.90
5846;DHT22;2949;50.778;7.094;2022-09-16T15:35:20;14.70;99.90
5846;DHT22;2949;50.778;7.094;2022-09-16T15:37:46;14.90;99.90
5846;DHT22;2949;50.778;7.094;2022-09-16T15:42:47;14.80;99.90
5846;DHT22;2949;50.778;7.094;2022-09-16T15:45:16;14.70;99.90
5846;DHT22;2949;50.778;7.094;2022-09-16T15:48:42;14.70;99.90
5846;DHT22;2949;50.778;7.094;2022-09-16T15:50:47;14.60;99.90
5846;DHT22;2949;50.778;7.094;2022-09-16T15:58:45;14.60;99.90
5846;DHT22;2949;50.778;7.094;2022-09-16T16:04:06;14.20;99.90
5846;DHT22;2949;50.778;7.094;2022-09-16T16:06:53;13.90;99.90
5846;DHT22;2949;50.778;7.094;2022-09-16T16:12:02;13.70;99.90
5846;DHT22;2949;50.778;7.094;2022-09-16T16:14:30;13.60;99.90
5846;DHT22;2949;50.778;7.094;2022-09-16T16:17:18;13.40;99.90
5846;DHT22;2949;50.778;7.094;2022-09-16T16:19:45;13.30;99.90
5846;DHT22;2949;50.778;7.094;2022-09-16T16:22:12;13.20;99.90
5846;DHT22;2949;50.778;7.094;2022-09-16T16:24:38;13.10;99.90
5846;DHT22;2949;50.778;7.094;2022-09-16T16:27:04;13.00;99.90
5846;DHT22;2949;50.778;7.094;2022-09-16T16:29:30;12.90;99.90
5846;DHT22;2949;50.778;7.094;2022-09-16T16:31:57;12.80;99.90
5846;DHT22;2949;50.778;7.094;2022-09-16T16:34:23;12.70;99.90
5846;DHT22;2949;50.778;7.094;2022-09-16T16:36:48;12.60;99.90
5846;DHT22;2949;50.778;7.094;2022-09-16T16:39:14;12.50;99.90
5846;DHT22;2949;50.778;7.094;2022-09-16T16:41:39;12.40;99.90
5846;DHT22;2949;50.778;7.094;2022-09-16T16:44:05;12.50;99.90
5846;DHT22;2949;50.778;7.094;2022-09-16T16:46:30;12.50;99.90
5846;DHT22;2949;50.778;7.094;2022-09-16T16:48:56;12.50;99.90
5846;DHT22;2949;50.778;7.094;2022-09-16T16:51:21;12.50;99.90
5846;DHT22;2949;50.778;7.094;2022-09-16T16:53:47;12.60;99.90
5846;DHT22;2949;50.778;7.094;2022-09-16T16:56:13;12.60;99.90
5846;DHT22;2949;50.778;7.094;2022-09-16T16:58:39;12.60;99.90
5846;DHT22;2949;50.778;7.094;2022-09-16T17:01:10;12.60;99.90
5846;DHT22;2949;50.778;7.094;2022-09-16T17:03:37;12.60;99.90
5846;DHT22;2949;50.778;7.094;2022-09-16T17:06:03;12.50;99.90
5846;DHT22;2949;50.778;7.094;2022-09-16T17:08:31;12.50;99.90
5846;DHT22;2949;50.778;7.094;2022-09-16T17:13:31;12.30;99.90
5846;DHT22;2949;50.778;7.094;2022-09-16T17:15:57;12.20;99.90
5846;DHT22;2949;50.778;7.094;2022-09-16T17:18:23;12.20;99.90
5846;DHT22;2949;50.778;7.094;2022-09-16T17:20:48;12.10;99.90
5846;DHT22;2949;50.778;7.094;2022-09-16T17:23:14;12.10;99.90
5846;DHT22;2949;50.778;7.094;2022-09-16T17:25:40;12.00;99.90
5846;DHT22;2949;50.778;7.094;2022-09-16T17:28:05;11.90;99.90
5846;DHT22;2949;50.778;7.094;2022-09-16T17:30:31;11.80;99.90
5846;DHT22;2949;50.778;7.094;2022-09-16T17:32:57;11.80;99.90
5846;DHT22;2949;50.778;7.094;2022-09-16T17:35:23;11.70;99.90
5846;DHT22;2949;50.778;7.094;2022-09-16T17:37:48;11.60;99.90
5846;DHT22;2949;50.778;7.094;2022-09-16T17:40:14;11.60;99.90
5846;DHT22;2949;50.778;7.094;2022-09-16T17:42:40;11.50;99.90
5846;DHT22;2949;50.778;7.094;2022-09-16T17:45:06;11.40;99.90
5846;DHT22;2949;50.778;7.094;2022-09-16T17:47:34;11.30;99.90
5846;DHT22;2949;50.778;7.094;2022-09-16T17:50:00;11.30;99.90
5846;DHT22;2949;50.778;7.094;2022-09-16T17:52:29;11.20;99.90
5846;DHT22;2949;50.778;7.094;2022-09-16T17:54:55;11.10;99.90
5846;DHT22;2949;50.778;7.094;2022-09-16T17:57:20;11.10;99.90
5846;DHT22;2949;50.778;7.094;2022-09-16T17:59:47;11.10;99.90
5846;DHT22;2949;50.778;7.094;2022-09-16T18:02:12;11.00;99.90
5846;DHT22;2949;50.778;7.094;2022-09-16T18:04:40;11.00;99.90
5846;DHT22;2949;50.778;7.094;2022-09-16T18:07:05;10.90;99.90
5846;DHT22;2949;50.778;7.094;2022-09-16T18:09:31;10.90;99.90
5846;DHT22;2949;50.778;7.094;2022-09-16T18:11:57;10.90;99.90
5846;DHT22;2949;50.778;7.094;2022-09-16T18:14:23;10.80;99.90
5846;DHT22;2949;50.778;7.094;2022-09-16T18:16:48;10.80;99.90
5846;DHT22;2949;50.778;7.094;2022-09-16T18:19:14;10.80;99.90
5846;DHT22;2949;50.778;7.094;2022-09-16T18:21:39;10.70;99.90
5846;DHT22;2949;50.778;7.094;2022-09-16T18:24:05;10.70;99.90
5846;DHT22;2949;50.778;7.094;2022-09-16T18:26:35;10.70;99.90
5846;DHT22;2949;50.778;7.094;2022-09-16T18:29:02;10.70;99.90
5846;DHT22;2949;50.778;7.094;2022-09-16T18:31:29;10.60;99.90
5846;DHT22;2949;50.778;7.094;2022-09-16T18:33:56;10.60;99.90
5846;DHT22;2949;50.778;7.094;2022-09-16T18:36:24;10.60;99.90
5846;DHT22;2949;50.778;7.094;2022-09-16T18:38:51;10.50;99.90
5846;DHT22;2949;50.778;7.094;2022-09-16T18:41:22;10.50;99.90
5846;DHT22;2949;50.778;7.094;2022-09-16T18:44:04;10.40;99.90
5846;DHT22;2949;50.778;7.094;2022-09-16T18:46:33;10.40;99.90
5846;DHT22;2949;50.778;7.094;2022-09-16T18:48:59;10.40;99.90
5846;DHT22;2949;50.778;7.094;2022-09-16T18:51:33;10.40;99.90
5846;DHT22;2949;50.778;7.094;2022-09-16T18:54:01;10.40;99.90
5846;DHT22;2949;50.778;7.094;2022-09-16T18:56:30;10.30;99.90
5846;DHT22;2949;50.778;7.094;2022-09-16T18:59:01;10.30;99.90
5846;DHT22;2949;50.778;7.094;2022-09-16T19:01:33;10.30;99.90
5846;DHT22;2949;50.778;7.094;2022-09-16T19:04:00;10.30;99.90
5846;DHT22;2949;50.778;7.094;2022-09-16T19:06:34;10.30;99.90
5846;DHT22;2949;50.778;7.094;2022-09-16T19:09:01;10.30;99.90
5846;DHT22;2949;50.778;7.094;2022-09-16T19:11:29;10.30;99.90
5846;DHT22;2949;50.778;7.094;2022-09-16T19:13:55;10.30;99.90
5846;DHT22;2949;50.778;7.094;2022-09-16T19:16:21;10.30;99.90